createdAt,value
2018-09-02T00:00:14.912Z,0
2018-09-02T00:00:55.320Z,0
2018-09-02T00:01:35.710Z,0
2018-09-02T00:02:16.141Z,0
2018-09-02T00:02:56.533Z,0
2018-09-02T00:03:36.934Z,0
2018-09-02T00:04:17.356Z,0
2018-09-02T00:04:57.787Z,0
2018-09-02T00:05:38.210Z,0
2018-09-02T00:06:18.573Z,0
2018-09-02T00:06:58.978Z,0
2018-09-02T00:07:39.430Z,0
2018-09-02T00:08:19.821Z,0
2018-09-02T00:09:00.261Z,0
2018-09-02T00:09:40.646Z,0
2018-09-02T00:10:21.064Z,0
2018-09-02T00:11:01.466Z,0
2018-09-02T00:11:41.893Z,0
2018-09-02T00:12:22.272Z,0
2018-09-02T00:13:02.682Z,0
2018-09-02T00:13:43.091Z,0
2018-09-02T00:14:23.510Z,0
2018-09-02T00:15:03.914Z,0
2018-09-02T00:15:44.310Z,0
2018-09-02T00:16:24.679Z,0
2018-09-02T00:17:05.091Z,0
2018-09-02T00:17:45.484Z,0
2018-09-02T00:18:25.868Z,0
2018-09-02T00:19:06.285Z,0
2018-09-02T00:19:46.673Z,0
2018-09-02T00:20:27.145Z,0
2018-09-02T00:21:07.503Z,0
2018-09-02T00:21:47.948Z,0
2018-09-02T00:22:28.300Z,0
2018-09-02T00:23:08.738Z,0
2018-09-02T00:23:49.171Z,0
2018-09-02T00:24:29.537Z,0
2018-09-02T00:25:09.917Z,0
2018-09-02T00:25:50.305Z,0
2018-09-02T00:26:30.730Z,0
2018-09-02T00:27:11.114Z,0
2018-09-02T00:27:51.512Z,0
2018-09-02T00:29:49.459Z,0
2018-09-02T00:30:29.661Z,0
2018-09-02T00:31:10.086Z,0
2018-09-02T00:31:50.519Z,0
2018-09-02T00:32:30.955Z,0
2018-09-02T00:33:11.465Z,0
2018-09-02T00:33:51.889Z,0
2018-09-02T00:34:32.241Z,0
2018-09-02T00:35:12.661Z,0
2018-09-02T00:35:53.083Z,0
2018-09-02T00:36:33.508Z,0
2018-09-02T00:37:13.872Z,0
2018-09-02T00:37:54.288Z,0
2018-09-02T00:40:12.225Z,0
2018-09-02T00:40:52.567Z,0
2018-09-02T00:41:32.968Z,0
2018-09-02T00:42:13.390Z,0
2018-09-02T00:42:53.801Z,0
2018-09-02T00:43:34.234Z,0
2018-09-02T00:44:14.649Z,0
2018-09-02T00:44:55.058Z,0
2018-09-02T00:45:35.446Z,0
2018-09-02T00:46:15.839Z,0
2018-09-02T00:46:56.320Z,0
2018-09-02T00:47:36.689Z,0
2018-09-02T00:48:17.091Z,0
2018-09-02T00:48:57.483Z,0
2018-09-02T00:49:37.819Z,0
2018-09-02T00:50:18.241Z,0
2018-09-02T00:50:58.626Z,0
2018-09-02T00:51:39.035Z,0
2018-09-02T00:53:51.784Z,0
2018-09-02T00:54:32.104Z,0
2018-09-02T00:55:12.458Z,0
2018-09-02T00:55:52.880Z,0
2018-09-02T00:56:33.303Z,0
2018-09-02T00:57:13.685Z,0
2018-09-02T00:57:54.091Z,0
2018-09-02T00:58:34.476Z,0
2018-09-02T00:59:14.884Z,0
2018-09-02T00:59:55.298Z,0
2018-09-02T01:00:35.717Z,0
2018-09-02T01:01:16.101Z,0
2018-09-02T01:01:56.499Z,0
2018-09-02T01:02:36.905Z,0
2018-09-02T01:03:17.335Z,0
2018-09-02T01:03:57.703Z,0
2018-09-02T01:05:55.433Z,0
2018-09-02T01:06:35.785Z,0
2018-09-02T01:07:16.174Z,0
2018-09-02T01:07:56.615Z,0
2018-09-02T01:08:37.000Z,0
2018-09-02T01:09:17.430Z,0
2018-09-02T01:09:57.844Z,0
2018-09-02T01:12:30.884Z,0
2018-09-02T01:13:11.188Z,0
2018-09-02T01:13:51.576Z,0
2018-09-02T01:14:31.969Z,0
2018-09-02T01:15:12.398Z,0
2018-09-02T01:17:30.345Z,0
2018-09-02T01:18:10.489Z,0
2018-09-02T01:18:50.892Z,0
2018-09-02T01:19:31.317Z,0
2018-09-02T01:20:11.692Z,0
2018-09-02T01:20:52.122Z,0
2018-09-02T01:21:32.492Z,0
2018-09-02T01:22:12.888Z,0
2018-09-02T01:22:53.280Z,0
2018-09-02T01:23:33.707Z,0
2018-09-02T01:24:14.079Z,0
2018-09-02T01:24:54.507Z,0
2018-09-02T01:25:34.911Z,0
2018-09-02T01:26:15.263Z,0
2018-09-02T01:26:55.687Z,0
2018-09-02T01:27:36.106Z,0
2018-09-02T01:28:16.540Z,0
2018-09-02T01:28:56.949Z,0
2018-09-02T01:29:37.345Z,0
2018-09-02T01:30:17.736Z,0
2018-09-02T01:30:58.176Z,0
2018-09-02T01:31:38.621Z,0
2018-09-02T01:32:18.995Z,0
2018-09-02T01:32:59.413Z,0
2018-09-02T01:33:39.797Z,0
2018-09-02T01:34:20.184Z,0
2018-09-02T01:35:00.640Z,0
2018-09-02T01:35:40.994Z,0
2018-09-02T01:36:21.406Z,0
2018-09-02T01:37:01.825Z,0
2018-09-02T01:37:42.243Z,0
2018-09-02T01:38:22.678Z,0
2018-09-02T01:39:03.045Z,0
2018-09-02T01:39:43.465Z,0
2018-09-02T01:40:23.890Z,0
2018-09-02T01:41:04.279Z,0
2018-09-02T01:41:44.678Z,0
2018-09-02T01:42:25.082Z,0
2018-09-02T01:43:05.526Z,0
2018-09-02T01:43:45.941Z,0
2018-09-02T01:44:26.315Z,0
2018-09-02T01:45:06.736Z,0
2018-09-02T01:45:47.198Z,0
2018-09-02T01:46:27.606Z,0
2018-09-02T01:47:07.966Z,0
2018-09-02T01:47:48.357Z,0
2018-09-02T01:50:06.747Z,0
2018-09-02T01:50:47.887Z,0
2018-09-02T01:51:28.285Z,0
2018-09-02T01:52:08.693Z,0
2018-09-02T01:52:49.108Z,0
2018-09-02T01:53:29.568Z,0
2018-09-02T01:55:52.672Z,0
2018-09-02T01:56:32.950Z,0
2018-09-02T01:57:13.309Z,0
2018-09-02T01:57:53.715Z,0
2018-09-02T01:58:34.121Z,0
2018-09-02T01:59:14.531Z,0
2018-09-02T01:59:54.960Z,0
2018-09-02T02:00:35.291Z,0
2018-09-02T02:01:15.823Z,0
2018-09-02T02:01:56.132Z,0
2018-09-02T02:02:36.515Z,0
2018-09-02T02:03:16.872Z,0
2018-09-02T02:03:57.397Z,0
2018-09-02T02:04:37.813Z,0
2018-09-02T02:05:18.218Z,0
2018-09-02T02:05:58.680Z,0
2018-09-02T02:06:39.006Z,0
2018-09-02T02:07:19.427Z,0
2018-09-02T02:07:59.935Z,0
2018-09-02T02:08:40.330Z,0
2018-09-02T02:09:20.714Z,0
2018-09-02T02:10:01.058Z,0
2018-09-02T02:10:41.574Z,0
2018-09-02T02:11:21.907Z,0
2018-09-02T02:12:02.262Z,0
2018-09-02T02:12:42.675Z,0
2018-09-02T02:13:23.015Z,0
2018-09-02T02:14:03.429Z,0
2018-09-02T02:14:43.960Z,0
2018-09-02T02:15:24.333Z,0
2018-09-02T02:16:04.632Z,0
2018-09-02T02:16:45.119Z,0
2018-09-02T02:17:25.512Z,0
2018-09-02T02:18:05.944Z,0
2018-09-02T02:18:46.377Z,0
2018-09-02T02:19:26.718Z,0
2018-09-02T02:20:07.178Z,0
2018-09-02T02:20:47.591Z,0
2018-09-02T02:21:27.939Z,0
2018-09-02T02:22:08.376Z,0
2018-09-02T02:22:48.722Z,0
2018-09-02T02:23:29.104Z,0
2018-09-02T02:24:09.584Z,0
2018-09-02T02:24:49.946Z,0
2018-09-02T02:25:30.331Z,0
2018-09-02T02:26:10.755Z,0
2018-09-02T02:26:51.171Z,0
2018-09-02T02:27:31.507Z,0
2018-09-02T02:28:11.982Z,0
2018-09-02T02:28:52.326Z,0
2018-09-02T02:29:32.820Z,0
2018-09-02T02:30:13.194Z,0
2018-09-02T02:30:53.614Z,0
2018-09-02T02:31:33.945Z,0
2018-09-02T02:32:14.396Z,0
2018-09-02T02:32:54.865Z,0
2018-09-02T02:33:35.172Z,0
2018-09-02T02:34:15.561Z,0
2018-09-02T02:34:55.996Z,0
2018-09-02T02:35:36.398Z,0
2018-09-02T02:36:16.693Z,0
2018-09-02T02:36:57.127Z,0
2018-09-02T02:37:37.564Z,0
2018-09-02T02:38:17.913Z,0
2018-09-02T02:38:58.350Z,0
2018-09-02T02:39:38.759Z,0
2018-09-02T02:40:19.157Z,0
2018-09-02T02:40:59.493Z,0
2018-09-02T02:41:39.977Z,0
2018-09-02T02:42:20.409Z,0
2018-09-02T02:43:00.832Z,0
2018-09-02T02:43:41.192Z,0
2018-09-02T02:44:21.510Z,0
2018-09-02T02:45:01.946Z,0
2018-09-02T02:45:42.374Z,0
2018-09-02T02:46:22.756Z,0
2018-09-02T02:47:03.099Z,0
2018-09-02T02:47:43.540Z,0
2018-09-02T02:48:23.991Z,0
2018-09-02T02:49:04.520Z,0
2018-09-02T02:49:44.860Z,0
2018-09-02T02:50:25.264Z,0
2018-09-02T02:51:05.624Z,0
2018-09-02T02:51:46.073Z,0
2018-09-02T02:52:26.370Z,0
2018-09-02T02:53:06.835Z,0
2018-09-02T02:53:47.224Z,0
2018-09-02T02:54:27.676Z,0
2018-09-02T02:55:08.218Z,0
2018-09-02T02:55:48.519Z,0
2018-09-02T02:56:28.952Z,0
2018-09-02T02:57:09.408Z,0
2018-09-02T02:57:49.774Z,0
2018-09-02T02:58:30.137Z,0
2018-09-02T02:59:10.607Z,0
2018-09-02T02:59:51.059Z,0
2018-09-02T03:00:31.581Z,0
2018-09-02T03:01:11.800Z,0
2018-09-02T03:01:52.264Z,0
2018-09-02T03:02:32.602Z,0
2018-09-02T03:03:13.007Z,0
2018-09-02T03:03:53.360Z,0
2018-09-02T03:04:33.758Z,0
2018-09-02T03:05:14.263Z,0
2018-09-02T03:05:54.675Z,0
2018-09-02T03:06:35.193Z,0
2018-09-02T03:07:15.482Z,0
2018-09-02T03:07:55.980Z,0
2018-09-02T03:08:36.531Z,0
2018-09-02T03:09:16.878Z,0
2018-09-02T03:09:57.259Z,0
2018-09-02T03:10:37.753Z,0
2018-09-02T03:11:17.965Z,0
2018-09-02T03:11:58.330Z,0
2018-09-02T03:12:38.735Z,0
2018-09-02T03:13:19.186Z,0
2018-09-02T03:13:59.653Z,0
2018-09-02T03:14:40.016Z,0
2018-09-02T03:15:20.334Z,0
2018-09-02T03:16:00.716Z,0
2018-09-02T03:16:41.173Z,0
2018-09-02T03:17:21.515Z,0
2018-09-02T03:18:01.922Z,0
2018-09-02T03:18:42.367Z,0
2018-09-02T03:19:22.754Z,0
2018-09-02T03:20:03.218Z,0
2018-09-02T03:20:43.638Z,0
2018-09-02T03:21:24.031Z,0
2018-09-02T03:22:04.388Z,0
2018-09-02T03:22:44.834Z,0
2018-09-02T03:23:25.246Z,0
2018-09-02T03:24:05.577Z,0
2018-09-02T03:24:46.065Z,0
2018-09-02T03:25:26.369Z,0
2018-09-02T03:26:06.901Z,0
2018-09-02T03:26:47.292Z,0
2018-09-02T03:27:27.644Z,0
2018-09-02T03:28:08.056Z,0
2018-09-02T03:28:48.429Z,0
2018-09-02T03:29:28.871Z,0
2018-09-02T03:30:09.296Z,0
2018-09-02T03:30:49.762Z,0
2018-09-02T03:31:30.186Z,0
2018-09-02T03:32:10.527Z,0
2018-09-02T03:32:50.910Z,0
2018-09-02T03:33:31.361Z,0
2018-09-02T03:34:11.787Z,0
2018-09-02T03:34:52.278Z,0
2018-09-02T03:35:32.796Z,0
2018-09-02T03:36:13.163Z,0
2018-09-02T03:36:54.193Z,0
2018-09-02T03:37:34.266Z,0
2018-09-02T03:38:14.619Z,0
2018-09-02T03:38:55.025Z,0
2018-09-02T03:39:35.461Z,0
2018-09-02T03:40:15.995Z,0
2018-09-02T03:40:56.419Z,0
2018-09-02T03:41:36.771Z,0
2018-09-02T03:42:17.227Z,0
2018-09-02T03:42:57.748Z,0
2018-09-02T03:43:38.104Z,0
2018-09-02T03:44:18.479Z,0
2018-09-02T03:44:58.914Z,0
2018-09-02T03:45:39.313Z,0
2018-09-02T03:46:19.938Z,0
2018-09-02T03:47:00.545Z,0
2018-09-02T03:47:40.749Z,0
2018-09-02T03:48:21.124Z,0
2018-09-02T03:49:01.608Z,0
2018-09-02T03:49:42.019Z,0
2018-09-02T03:50:22.314Z,0
2018-09-02T03:51:02.740Z,0
2018-09-02T03:51:43.148Z,0
2018-09-02T03:52:23.601Z,0
2018-09-02T03:53:03.981Z,0
2018-09-02T03:53:44.393Z,0
2018-09-02T03:54:24.860Z,0
2018-09-02T03:55:05.214Z,0
2018-09-02T03:55:45.589Z,0
2018-09-02T03:56:26.318Z,0
2018-09-02T03:57:06.704Z,0
2018-09-02T03:57:47.103Z,0
2018-09-02T03:58:27.619Z,0
2018-09-02T03:59:08.021Z,0
2018-09-02T03:59:48.456Z,0
2018-09-02T04:00:28.878Z,0
2018-09-02T04:01:09.234Z,0
2018-09-02T04:01:49.594Z,0
2018-09-02T04:02:30.016Z,0
2018-09-02T04:03:10.579Z,0
2018-09-02T04:03:50.951Z,0
2018-09-02T04:04:31.300Z,0
2018-09-02T04:05:11.729Z,0
2018-09-02T04:05:52.186Z,0
2018-09-02T04:06:32.569Z,0
2018-09-02T04:07:13.015Z,0
2018-09-02T04:07:53.293Z,0
2018-09-02T04:08:33.776Z,0
2018-09-02T04:09:14.344Z,0
2018-09-02T04:09:54.546Z,0
2018-09-02T04:10:34.949Z,0
2018-09-02T04:11:15.323Z,0
2018-09-02T04:11:55.745Z,0
2018-09-02T04:12:36.162Z,0
2018-09-02T04:13:16.628Z,0
2018-09-02T04:13:56.975Z,0
2018-09-02T04:14:37.382Z,0
2018-09-02T04:15:17.801Z,0
2018-09-02T04:15:58.283Z,0
2018-09-02T04:16:38.570Z,0
2018-09-02T04:17:18.973Z,0
2018-09-02T04:17:59.532Z,0
2018-09-02T04:18:39.791Z,0
2018-09-02T04:19:20.200Z,4
2018-09-02T04:20:00.537Z,4
2018-09-02T04:20:40.973Z,0
2018-09-02T04:21:21.375Z,0
2018-09-02T04:22:01.779Z,4
2018-09-02T04:22:42.151Z,4
2018-09-02T04:23:22.676Z,4
2018-09-02T04:24:03.043Z,4
2018-09-02T04:24:43.380Z,4
2018-09-02T04:25:23.806Z,8
2018-09-02T04:26:04.183Z,4
2018-09-02T04:26:44.585Z,8
2018-09-02T05:07:51.579Z,452
2018-09-02T05:08:40.200Z,480
2018-09-02T05:10:25.429Z,560
2018-09-02T05:12:28.316Z,692
2018-09-02T05:17:19.373Z,1048
2018-09-02T05:18:04.156Z,1140
2018-09-02T05:18:44.497Z,1208
2018-09-02T05:19:24.968Z,1284
2018-09-02T05:20:05.331Z,1364
2018-09-02T05:20:45.755Z,1468
2018-09-02T05:21:26.195Z,1508
2018-09-02T05:22:06.591Z,1560
2018-09-02T05:22:46.952Z,1664
2018-09-02T05:23:27.367Z,1780
2018-09-02T05:24:07.808Z,1832
2018-09-02T05:24:48.197Z,1972
2018-09-02T05:25:28.576Z,2072
2018-09-02T05:26:08.951Z,2244
2018-09-02T05:26:49.374Z,2304
2018-09-02T05:27:29.714Z,2428
2018-09-02T05:28:10.180Z,2460
2018-09-02T05:28:50.617Z,2600
2018-09-02T05:29:31.007Z,2528
2018-09-02T05:30:11.416Z,2704
2018-09-02T05:30:51.779Z,2916
2018-09-02T05:31:32.131Z,2972
2018-09-02T05:32:12.535Z,3044
2018-09-02T05:32:52.925Z,3140
2018-09-02T05:33:33.356Z,3424
2018-09-02T05:34:13.707Z,3460
2018-09-02T05:36:14.086Z,3760
2018-09-02T05:36:55.041Z,3992
2018-09-02T05:37:35.384Z,4104
2018-09-02T05:38:15.766Z,4404
2018-09-02T05:38:56.136Z,4512
2018-09-02T05:39:36.587Z,4688
2018-09-02T05:40:16.995Z,4952
2018-09-02T05:40:57.424Z,5048
2018-09-02T05:41:37.865Z,4936
2018-09-02T05:42:18.276Z,5288
2018-09-02T05:42:58.619Z,5428
2018-09-02T05:43:38.998Z,5496
2018-09-02T05:44:19.442Z,5756
2018-09-02T05:44:59.886Z,5824
2018-09-02T05:45:40.277Z,6132
2018-09-02T05:46:20.651Z,6324
2018-09-02T05:47:00.993Z,6416
2018-09-02T05:47:41.388Z,6756
2018-09-02T05:48:21.876Z,6988
2018-09-02T05:49:02.233Z,7240
2018-09-02T05:49:42.647Z,7320
2018-09-02T05:50:23.052Z,7396
2018-09-02T05:51:03.546Z,7604
2018-09-02T05:51:43.938Z,7976
2018-09-02T05:52:24.307Z,7992
2018-09-02T05:53:04.728Z,8088
2018-09-02T05:53:45.121Z,8512
2018-09-02T05:54:25.514Z,8672
2018-09-02T05:55:05.962Z,8788
2018-09-02T05:55:46.355Z,8892
2018-09-02T05:56:26.751Z,9196
2018-09-02T05:57:07.123Z,9568
2018-09-02T05:57:47.545Z,9456
2018-09-02T05:58:27.929Z,9804
2018-09-02T05:59:08.431Z,9908
2018-09-02T05:59:48.810Z,10424
2018-09-02T06:00:29.168Z,10816
2018-09-02T06:02:28.333Z,11808
2018-09-02T06:03:08.536Z,11648
2018-09-02T06:03:49.010Z,11616
2018-09-02T06:04:29.382Z,11744
2018-09-02T06:05:09.816Z,12512
2018-09-02T06:05:50.172Z,12832
2018-09-02T06:06:30.561Z,13088
2018-09-02T06:07:11.011Z,13376
2018-09-02T06:07:51.388Z,14528
2018-09-02T06:08:31.776Z,15168
2018-09-02T06:10:29.520Z,15904
2018-09-02T06:11:09.710Z,17280
2018-09-02T06:11:50.089Z,17568
2018-09-02T06:12:30.472Z,17472
2018-09-02T06:13:10.850Z,16640
2018-09-02T06:13:51.261Z,15776
2018-09-02T06:14:31.708Z,15136
2018-09-02T06:15:12.093Z,15040
2018-09-02T06:15:52.507Z,14240
2018-09-02T06:16:32.921Z,13760
2018-09-02T06:17:13.351Z,13184
2018-09-02T06:17:53.745Z,12832
2018-09-02T06:18:34.169Z,12576
2018-09-02T06:19:14.573Z,12416
2018-09-02T06:19:54.980Z,12252
2018-09-02T06:20:35.418Z,12416
2018-09-02T06:21:15.817Z,12384
2018-09-02T06:21:56.283Z,12448
2018-09-02T06:22:36.697Z,12672
2018-09-02T06:23:17.077Z,12800
2018-09-02T06:23:57.488Z,13472
2018-09-02T06:24:37.909Z,14176
2018-09-02T06:25:18.299Z,14048
2018-09-02T06:25:58.692Z,13856
2018-09-02T06:26:39.147Z,13344
2018-09-02T06:27:19.555Z,12864
2018-09-02T06:27:59.979Z,12384
2018-09-02T06:28:40.349Z,12204
2018-09-02T06:29:20.816Z,12024
2018-09-02T06:30:01.256Z,11868
2018-09-02T06:30:41.588Z,11680
2018-09-02T06:31:21.987Z,11532
2018-09-02T06:32:02.431Z,11536
2018-09-02T06:32:42.917Z,11528
2018-09-02T06:33:23.286Z,11688
2018-09-02T06:34:03.703Z,11788
2018-09-02T06:34:44.166Z,11664
2018-09-02T06:35:24.650Z,11692
2018-09-02T06:36:04.970Z,11836
2018-09-02T06:36:45.428Z,12076
2018-09-02T06:37:25.852Z,12148
2018-09-02T06:38:06.227Z,12260
2018-09-02T06:38:46.612Z,12388
2018-09-02T06:39:27.083Z,12356
2018-09-02T06:40:07.411Z,11968
2018-09-02T06:40:47.802Z,11892
2018-09-02T06:41:28.229Z,12032
2018-09-02T06:42:08.615Z,12076
2018-09-02T06:42:49.068Z,11844
2018-09-02T06:43:29.454Z,11768
2018-09-02T06:44:09.849Z,11740
2018-09-02T06:44:50.287Z,12264
2018-09-02T06:45:30.751Z,12152
2018-09-02T06:46:11.067Z,12104
2018-09-02T06:46:51.517Z,12340
2018-09-02T06:47:31.897Z,12564
2018-09-02T06:48:12.332Z,12812
2018-09-02T06:48:52.722Z,13040
2018-09-02T06:49:33.129Z,13184
2018-09-02T06:50:13.542Z,13472
2018-09-02T06:50:53.922Z,13792
2018-09-02T06:51:34.491Z,13920
2018-09-02T06:52:14.909Z,13824
2018-09-02T06:52:55.355Z,13600
2018-09-02T06:53:35.765Z,13728
2018-09-02T06:54:16.196Z,13568
2018-09-02T06:54:56.617Z,13232
2018-09-02T06:55:37.048Z,13116
2018-09-02T06:56:17.475Z,12900
2018-09-02T06:56:57.862Z,12764
2018-09-02T06:57:38.271Z,12616
2018-09-02T06:58:18.655Z,12480
2018-09-02T06:58:59.059Z,12552
2018-09-02T06:59:39.490Z,12704
2018-09-02T07:00:19.912Z,12756
2018-09-02T07:01:00.351Z,12696
2018-09-02T07:01:40.744Z,12456
2018-09-02T07:02:21.220Z,12552
2018-09-02T07:03:01.581Z,12604
2018-09-02T07:03:42.023Z,12412
2018-09-02T07:04:22.432Z,11828
2018-09-02T07:05:02.888Z,11260
2018-09-02T07:05:43.270Z,11036
2018-09-02T07:06:23.656Z,10684
2018-09-02T07:07:04.083Z,10456
2018-09-02T07:07:44.520Z,10552
2018-09-02T07:08:24.923Z,10712
2018-09-02T07:09:05.350Z,10816
2018-09-02T07:09:45.775Z,10696
2018-09-02T07:10:26.195Z,10544
2018-09-02T07:13:47.967Z,9888
2018-09-02T07:14:28.232Z,9780
2018-09-02T07:15:08.611Z,9592
2018-09-02T07:15:48.991Z,9480
2018-09-02T07:16:29.431Z,9540
2018-09-02T07:17:09.814Z,9664
2018-09-02T07:17:50.217Z,9516
2018-09-02T07:18:30.633Z,9232
2018-09-02T07:19:11.053Z,8828
2018-09-02T07:19:51.453Z,8600
2018-09-02T07:20:31.933Z,8476
2018-09-02T07:21:12.262Z,8392
2018-09-02T07:21:52.684Z,7948
2018-09-02T07:22:33.088Z,7340
2018-09-02T07:23:13.507Z,6992
2018-09-02T07:23:53.923Z,6828
2018-09-02T07:26:27.174Z,6488
2018-09-02T07:27:07.350Z,6496
2018-09-02T07:27:47.759Z,6484
2018-09-02T07:28:28.173Z,6472
2018-09-02T07:29:08.571Z,6164
2018-09-02T07:29:48.995Z,5144
2018-09-02T07:30:29.417Z,4440
2018-09-02T07:31:09.843Z,4744
2018-09-02T07:31:50.235Z,6380
2018-09-02T07:32:30.614Z,6284
2018-09-02T07:33:11.064Z,6256
2018-09-02T07:33:51.472Z,6164
2018-09-02T07:34:31.861Z,6048
2018-09-02T07:35:12.280Z,5964
2018-09-02T07:35:52.696Z,5872
2018-09-02T07:36:33.123Z,5728
2018-09-02T07:37:13.532Z,5484
2018-09-02T07:37:53.963Z,5360
2018-09-02T07:38:34.378Z,5184
2018-09-02T07:39:14.814Z,5148
2018-09-02T07:39:55.217Z,5116
2018-09-02T07:40:35.623Z,5072
2018-09-02T07:42:33.371Z,4972
2018-09-02T07:43:13.508Z,4984
2018-09-02T07:43:54.119Z,4988
2018-09-02T07:44:34.338Z,5004
2018-09-02T07:45:14.742Z,5000
2018-09-02T07:45:55.150Z,4956
2018-09-02T07:46:35.607Z,4868
2018-09-02T07:47:15.984Z,4748
2018-09-02T07:47:56.391Z,4632
2018-09-02T07:48:36.786Z,4572
2018-09-02T07:49:17.193Z,4544
2018-09-02T07:49:57.630Z,4532
2018-09-02T07:50:38.043Z,4500
2018-09-02T07:51:18.451Z,4460
2018-09-02T07:51:58.858Z,4412
2018-09-02T07:52:39.273Z,4356
2018-09-02T07:53:19.701Z,4324
2018-09-02T07:54:00.115Z,4284
2018-09-02T07:54:40.572Z,4260
2018-09-02T07:55:20.973Z,4220
2018-09-02T07:56:01.401Z,4172
2018-09-02T07:56:41.892Z,4136
2018-09-02T07:57:22.245Z,4068
2018-09-02T07:58:02.688Z,4024
2018-09-02T07:58:43.124Z,3968
2018-09-02T07:59:23.563Z,3928
2018-09-02T08:00:03.942Z,3888
2018-09-02T08:02:02.379Z,3808
2018-09-02T08:02:42.835Z,3768
2018-09-02T08:03:23.188Z,3728
2018-09-02T08:04:03.616Z,3692
2018-09-02T08:04:44.066Z,3644
2018-09-02T08:05:24.523Z,3612
2018-09-02T08:06:04.946Z,3580
2018-09-02T08:06:45.405Z,3556
2018-09-02T08:07:25.829Z,3536
2018-09-02T08:08:06.249Z,3504
2018-09-02T08:08:46.670Z,3476
2018-09-02T08:09:27.112Z,3440
2018-09-02T08:10:07.514Z,3404
2018-09-02T08:10:47.997Z,3380
2018-09-02T08:11:28.302Z,3360
2018-09-02T08:12:08.747Z,3340
2018-09-02T08:12:49.228Z,3312
2018-09-02T08:13:29.506Z,3288
2018-09-02T08:14:09.895Z,3268
2018-09-02T08:14:50.367Z,3260
2018-09-02T08:15:30.709Z,3252
2018-09-02T08:16:11.145Z,3236
2018-09-02T08:16:51.579Z,3220
2018-09-02T08:17:32.008Z,3208
2018-09-02T08:18:12.409Z,3196
2018-09-02T08:18:52.834Z,3184
2018-09-02T08:19:33.272Z,3160
2018-09-02T08:20:13.641Z,3144
2018-09-02T08:20:54.049Z,3124
2018-09-02T08:21:34.474Z,3120
2018-09-02T08:22:16.862Z,3108
2018-09-02T08:22:57.319Z,3092
2018-09-02T08:23:37.739Z,3080
2018-09-02T08:24:18.172Z,3052
2018-09-02T08:24:58.619Z,3036
2018-09-02T08:25:39.047Z,3024
2018-09-02T08:26:20.251Z,3012
2018-09-02T08:30:12.822Z,2908
2018-09-02T08:30:53.219Z,2884
2018-09-02T08:31:33.666Z,2868
2018-09-02T08:32:14.125Z,2848
2018-09-02T08:32:54.505Z,2836
2018-09-02T08:33:34.906Z,2820
2018-09-02T08:34:17.150Z,2804
2018-09-02T08:34:57.678Z,2792
2018-09-02T08:35:38.062Z,2780
2018-09-02T08:36:19.905Z,2764
2018-09-02T08:42:11.777Z,2672
2018-09-02T08:44:45.338Z,2640
2018-09-02T08:45:25.754Z,2636
2018-09-02T08:46:06.193Z,2628
2018-09-02T08:46:46.763Z,2628
2018-09-02T08:47:27.078Z,2616
2018-09-02T08:48:07.506Z,2612
2018-09-02T08:48:47.921Z,2608
2018-09-02T08:49:28.343Z,2604
2018-09-02T08:50:09.053Z,2596
2018-09-02T08:50:49.448Z,2596
2018-09-02T08:51:29.876Z,2592
2018-09-02T08:52:10.368Z,2592
2018-09-02T08:52:51.472Z,2584
2018-09-02T08:53:31.477Z,2584
2018-09-02T08:54:11.879Z,2576
2018-09-02T08:54:52.300Z,2576
2018-09-02T08:55:32.756Z,2568
2018-09-02T08:56:13.196Z,2560
2018-09-02T08:56:53.617Z,2560
2018-09-02T08:57:34.018Z,2556
2018-09-02T08:58:14.473Z,2548
2018-09-02T08:58:54.823Z,2544
2018-09-02T08:59:35.240Z,2540
2018-09-02T09:00:15.668Z,2536
2018-09-02T09:00:56.085Z,2524
2018-09-02T09:01:36.545Z,2516
2018-09-02T09:02:16.911Z,2504
2018-09-02T09:02:57.289Z,2492
2018-09-02T09:03:37.687Z,2484
2018-09-02T09:04:18.158Z,2476
2018-09-02T09:04:58.496Z,2472
2018-09-02T09:05:38.918Z,2464
2018-09-02T09:06:19.461Z,2460
2018-09-02T09:06:59.885Z,2456
2018-09-02T09:07:40.456Z,2448
2018-09-02T09:08:20.950Z,2448
2018-09-02T09:09:01.460Z,2440
2018-09-02T09:09:41.573Z,2436
2018-09-02T09:10:22.065Z,2432
2018-09-02T09:11:02.510Z,2424
2018-09-02T09:11:42.834Z,2420
2018-09-02T09:12:23.436Z,2416
2018-09-02T09:13:03.783Z,2412
2018-09-02T09:13:45.339Z,2408
2018-09-02T09:15:45.330Z,2392
2018-09-02T09:16:25.990Z,2388
2018-09-02T09:17:06.513Z,2384
2018-09-02T09:17:46.823Z,2380
2018-09-02T09:18:27.236Z,2380
2018-09-02T09:19:07.696Z,2376
2018-09-02T09:19:48.108Z,2376
2018-09-02T09:20:28.619Z,2372
2018-09-02T09:21:09.302Z,2372
2018-09-02T09:21:49.695Z,2364
2018-09-02T09:22:30.449Z,2360
2018-09-02T09:23:11.226Z,2360
2018-09-02T09:23:51.856Z,2352
2018-09-02T09:24:32.377Z,2352
2018-09-02T09:25:12.963Z,2352
2018-09-02T09:25:53.120Z,2348
2018-09-02T09:26:33.610Z,2344
2018-09-02T09:27:14.171Z,2332
2018-09-02T09:27:54.792Z,2320
2018-09-02T09:30:24.940Z,2296
2018-09-02T09:31:05.663Z,2288
2018-09-02T09:31:46.075Z,2280
2018-09-02T09:32:27.077Z,2280
2018-09-02T09:33:06.944Z,2268
2018-09-02T09:33:47.333Z,2268
2018-09-02T09:34:27.740Z,2260
2018-09-02T09:35:08.151Z,2252
2018-09-02T09:35:48.655Z,2240
2018-09-02T09:38:06.746Z,2232
2018-09-02T09:38:47.295Z,2228
2018-09-02T09:39:27.935Z,2228
2018-09-02T09:40:08.149Z,2224
2018-09-02T09:40:48.559Z,2216
2018-09-02T09:41:29.003Z,2204
2018-09-02T09:42:09.417Z,2200
2018-09-02T09:42:49.833Z,2188
2018-09-02T09:43:30.252Z,2180
2018-09-02T09:45:54.707Z,2168
2018-09-02T09:46:41.477Z,2164
2018-09-02T09:47:22.224Z,2164
2018-09-02T09:48:03.434Z,2164
2018-09-02T09:48:43.873Z,2156
2018-09-02T09:49:24.817Z,2156
2018-09-02T09:50:05.255Z,2156
2018-09-02T09:50:46.367Z,2144
2018-09-02T09:51:26.724Z,2140
2018-09-02T09:52:09.817Z,2128
2018-09-02T09:52:50.251Z,2124
2018-09-02T09:53:31.143Z,2116
2018-09-02T09:54:11.531Z,2116
2018-09-02T09:54:51.979Z,2112
2018-09-02T09:55:32.541Z,2116
2018-09-02T09:56:12.906Z,2112
2018-09-02T09:56:53.406Z,2104
2018-09-02T09:57:34.129Z,2104
2018-09-02T09:58:14.541Z,2104
2018-09-02T09:58:54.989Z,2100
2018-09-02T09:59:35.780Z,2100
2018-09-02T10:00:16.293Z,2092
2018-09-02T10:00:56.552Z,2080
2018-09-02T10:01:37.321Z,2068
2018-09-02T10:02:17.638Z,2068
2018-09-02T10:02:59.102Z,2052
2018-09-02T10:03:39.775Z,2044
2018-09-02T10:04:20.721Z,2040
2018-09-02T10:05:01.297Z,2036
2018-09-02T10:05:44.525Z,2036
2018-09-02T10:06:26.978Z,2036
2018-09-02T10:07:07.372Z,2032
2018-09-02T10:07:50.526Z,2032
2018-09-02T10:08:30.202Z,2032
2018-09-02T10:09:10.903Z,2020
2018-09-02T10:09:51.349Z,2016
2018-09-02T10:10:31.863Z,2020
2018-09-02T10:11:12.140Z,2012
2018-09-02T10:11:52.808Z,2008
2018-09-02T10:12:33.124Z,2012
2018-09-02T10:13:13.742Z,2016
2018-09-02T10:13:54.365Z,2020
2018-09-02T10:15:56.563Z,1984
2018-09-02T10:16:37.034Z,1980
2018-09-02T10:17:17.475Z,1976
2018-09-02T10:17:58.220Z,1968
2018-09-02T10:18:38.491Z,1960
2018-09-02T10:19:20.804Z,1960
2018-09-02T10:20:01.264Z,1952
2018-09-02T10:20:41.757Z,1956
2018-09-02T10:21:22.710Z,1948
2018-09-02T10:22:02.877Z,1944
2018-09-02T10:22:43.336Z,1944
2018-09-02T10:23:23.740Z,1940
2018-09-02T10:24:04.169Z,1940
2018-09-02T10:24:44.572Z,1928
2018-09-02T10:25:25.060Z,1924
2018-09-02T10:26:05.746Z,1920
2018-09-02T10:26:48.488Z,1916
2018-09-02T10:27:29.095Z,1912
2018-09-02T10:28:09.445Z,1904
2018-09-02T11:15:13.644Z,1816
2018-09-02T11:16:06.311Z,1832
2018-09-02T11:16:48.723Z,1836
2018-09-02T11:17:29.134Z,1860
2018-09-02T11:18:09.514Z,1872
2018-09-02T11:18:49.946Z,1852
2018-09-02T11:19:30.339Z,1832
2018-09-02T11:20:10.730Z,1828
2018-09-02T11:20:51.121Z,1832
2018-09-02T11:21:31.480Z,1832
2018-09-02T11:22:11.873Z,1832
2018-09-02T11:22:52.256Z,1840
2018-09-02T11:23:32.692Z,1840
2018-09-02T11:24:13.107Z,1828
2018-09-02T11:24:53.522Z,1752
2018-09-02T11:25:33.947Z,1800
2018-09-02T11:26:14.345Z,1840
2018-09-02T11:26:54.743Z,1848
2018-09-02T11:27:35.147Z,1868
2018-09-02T11:28:15.538Z,1900
2018-09-02T11:28:55.930Z,1928
2018-09-02T11:29:36.419Z,1856
2018-09-02T11:30:16.819Z,1848
2018-09-02T11:30:57.214Z,1928
2018-09-02T11:31:37.674Z,1752
2018-09-02T11:32:18.064Z,1696
2018-09-02T11:32:58.455Z,1632
2018-09-02T11:33:38.859Z,1600
2018-09-02T11:34:19.307Z,1644
2018-09-02T11:34:59.683Z,1672
2018-09-02T11:35:40.155Z,2120
2018-09-02T11:36:20.542Z,2176
2018-09-02T11:37:00.926Z,2040
2018-09-02T11:37:41.363Z,1952